1669 Diamondview Road Private Strip

CA-0043 · Ontario, Canada

METAR anciennes CA-0043 · 1669 Diamondview Road Private Strip

Tu vois ci-dessous les METAR des derniers jours. Sélectionne une année pour parcourir les METAR plus anciens, à partir de l'année 2007.

17 juillet 2024

Temps Code Temps Temp. Vue Base cloud Vent METAR/SPECI
23:00
V
20 °C 15 mi - 280° 280° 8 kt METAR CYOW 180300Z 28008KT 15SM FEW070 SCT250 20/18 A2980 RMK AC1CI3 SLP091 DENSITY ALT 1200FT
23:00
V
20 °C 15 mi - 280° 280° 8 kt METAR CYOW 180300Z 28008KT 15SM FEW070 SCT250 20/18 A2980 RMK AC1CI3 SLP091 DENSITY ALT 1200FT
22:00
V
20 °C 15 mi 25.000 ft 190° 190° 5 kt METAR CYOW 180200Z 19005KT 15SM FEW070 BKN250 20/19 A2978 RMK AC1CI4 SLP085 DENSITY ALT 1300FT
21:00
V
20 °C 15 mi 25.000 ft 170° 170° 4 kt METAR CYOW 180100Z 17004KT 15SM FEW060TCU BKN250 20/20 A2977 RMK TCU2CI4 SLP084 DENSITY ALT 1300FT
20:00
V
21 °C 15 mi - 160° 160° 5 kt METAR CYOW 180000Z 16005KT 15SM FEW060TCU FEW100 SCT250 21/21 A2977 RMK TCU1AC1CI2 SLP081 DENSITY ALT 1300FT
19:00
V
22 °C 15 mi 7.500 ft 130° 130° 3 kt METAR CYOW 172300Z 13003KT 15SM VCSH SCT050TCU BKN075 BKN100 22/18 A2976 RMK TCU4AC1AC1 SH E QUAD SLP079 DENSITY ALT 1500FT
18:33
V
20 °C 15 mi 4.500 ft 290° 290° 3 kt METAR CYOW 172233Z 29003KT 270V050 15SM -SHRA BKN045TCU 20/19 A2977 RMK TCU6 SLP081 DENSITY ALT 1300FT
18:19
V
20 °C 15 mi 4.400 ft 030° 030° 4 kt METAR CYOW 172219Z 03004KT 15SM BKN044 BKN080 20/19 A2976 WS RWY32 RMK SC6AC1 CU ASOTD SLP080 DENSITY ALT 1200FT
17:45
V
25 °C 10 mi 4.400 ft 240° 240° 6 kt METAR CYOW 172145Z 24006KT 190V250 10SM -TSRA BKN044CB BKN080 25/19 A2975 RMK CB6AC1 PRESRR SLP076 DENSITY ALT 1900FT
18:00
M
19 °C 4 mi 3.400 ft 300° 300° 8 - 24 kt METAR CYOW 172200Z 30008G24KT 250V310 4SM R07/4500VP6000FT/D R32/3000VP6000FT/D -TSRA BR OVC034CB 19/18 A2978 RMK CB8 PRESRR SLP085 DENSITY ALT 1100FT
18:03
V
19 °C 15 mi 3.500 ft 330° 330° 5 - 23 kt METAR CYOW 172203Z 33005G23KT 250V350 15SM R07/4500VP6000FT/N R32/3000VP6000FT/D -SHRA BKN035CB BKN080 19/18 A2976 RMK CB5AC2 CB MOV W-E SLP080 DENSITY ALT 1100FT
17:47
I
25 °C 2 mi 3.800 ft 270° 270° 6 kt METAR CYOW 172147Z CCA 27006KT 210V290 2SM TSRA OVC038CB 25/19 A2976 RMK RA2CB6 PRESRR SLP078 DENSITY ALT 1900FT
17:42
V
25 °C 10 mi 5.000 ft 230° 230° 6 kt METAR CYOW 172142Z 23006KT 170V240 10SM TS BKN050CB BKN090 25/19 A2974 RMK CB6AC1 SLP074 DENSITY ALT 1900FT
17:00
V
26 °C 15 mi 7.400 ft 240° 240° 2 kt METAR CYOW 172100Z 24002KT 15SM SCT040TCU BKN074 26/19 A2974 RMK TCU3AC2 SLP071 DENSITY ALT 2000FT
16:00
V
27 °C 15 mi - 250° 250° 8 kt METAR CYOW 172000Z 25008KT 15SM FEW040TCU FEW180 27/16 A2975 RMK TCU1AC1 TCU TR AC TR SLP075 DENSITY ALT 2100FT
15:00
V
27 °C 15 mi - 250° 250° 6 kt METAR CYOW 171900Z 25006KT 220V280 15SM FEW030TCU FEW150 SCT180 SCT220 27/19 A2976 RMK TCU1AC1AC3CI1 AC TR CI TR SLP077 DENSITY ALT 2000FT
14:00
V
25 °C 15 mi 22.000 ft 250° 250° 6 kt METAR CYOW 171800Z 25006KT 210V320 15SM FEW025TCU SCT150 BKN220 25/19 A2976 RMK TCU1AC2CI3 SLP080 DENSITY ALT 1900FT
13:00
M
24 °C 15 mi 2.400 ft 290° 290° 9 kt METAR CYOW 171700Z 29009KT 15SM BKN024 BKN044 24/19 A2977 RMK CU5SC2 SLP083 DENSITY ALT 1700FT
12:00
M
24 °C 15 mi 2.400 ft 280° 280° 9 kt METAR CYOW 171600Z 28009KT 15SM BKN024 BKN140 BKN210 24/20 A2978 RMK SC5AC1CI1 SLP085 DENSITY ALT 1700FT
11:00
M
24 °C 15 mi 2.400 ft 270° 270° 10 kt METAR CYOW 171500Z 27010KT 240V300 15SM BKN024 BKN220 24/19 A2977 RMK SC5CI2 SLP080 DENSITY ALT 1700FT
10:00
V
24 °C 15 mi - 250° 250° 9 kt METAR CYOW 171400Z 25009KT 15SM FEW050 FEW150 SCT220 24/20 A2976 RMK SC1AC1CI3 SC TR SLP077 DENSITY ALT 1700FT
09:00
V
23 °C 15 mi 16.000 ft 260° 260° 10 kt METAR CYOW 171300Z 26010KT 15SM FEW050 BKN160 BKN220 23/20 A2975 RMK SC1AC4CI2 SLP074 DENSITY ALT 1600FT
08:00
V
21 °C 15 mi 10.000 ft 230° 230° 7 kt METAR CYOW 171200Z 23007KT 15SM SCT050 BKN100 BKN220 21/21 A2974 RMK SC3AC3CI1 SLP071 DENSITY ALT 1500FT
07:00
V
21 °C 15 mi 5.200 ft 210° 210° 4 kt METAR CYOW 171100Z 21004KT 15SM BKN052 BKN180 21/21 A2973 RMK SC5AC2 SLP069 DENSITY ALT 1400FT
06:00
V
20 °C 15 mi 23.000 ft 210° 210° 4 kt METAR CYOW 171000Z 21004KT 15SM SCT055 BKN230 20/20 A2971 RMK SC4CI2 SLP062 DENSITY ALT 1300FT
05:00
V
20 °C 15 mi 23.000 ft 240° 240° 3 kt METAR CYOW 170900Z 24003KT 15SM FEW050 BKN230 20/20 A2970 RMK SC1CI5 SC TR SLP057 DENSITY ALT 1300FT
04:00
V
20 °C 15 mi - 250° 250° 3 kt METAR CYOW 170800Z 25003KT 15SM FEW012 FEW110 FEW230 20/20 A2970 RMK SC1AC1CI2 SC TR AC TR SLP057 DENSITY ALT 1400FT
03:00
V
21 °C 15 mi - 220° 220° 8 kt METAR CYOW 170700Z 22008KT 15SM FEW045 FEW250 21/21 A2971 RMK SC1CI1 SC TR SLP061 DENSITY ALT 1500FT
02:00
V
22 °C 15 mi - 220° 220° 10 kt METAR CYOW 170600Z 22010KT 15SM FEW014 FEW035 22/22 A2971 RMK SC1SC1 SLP062 DENSITY ALT 1500FT
01:00
V
22 °C 15 mi 3.500 ft 210° 210° 7 kt METAR CYOW 170500Z 21007KT 15SM FEW014 BKN035 22/22 A2971 RMK SC1SC5 SLP062 DENSITY ALT 1600FT
00:00
V
23 °C 15 mi 3.500 ft 200° 200° 9 kt METAR CYOW 170400Z 20009KT 15SM BKN035 BKN045 23/23 A2969 RMK SC6SC1 SLP056 DENSITY ALT 1700FT

16 juillet 2024

Temps Code Temps Temp. Vue Base cloud Vent METAR/SPECI
23:00
V
23 °C 15 mi 5.000 ft 210° 210° 10 - 15 kt METAR CYOW 170300Z 21010G15KT 15SM SCT038 BKN050 23/22 A2970 RMK SC3SC3 SLP059 DENSITY ALT 1700FT
22:00
V
23 °C 15 mi 5.000 ft 210° 210° 6 kt METAR CYOW 170200Z 21006KT 15SM BKN050 23/22 A2970 RMK SC5 SLP057 DENSITY ALT 1700FT
21:00
V
24 °C 15 mi - 210° 210° 5 kt METAR CYOW 170100Z 21005KT 15SM FEW045 SCT090 24/21 A2970 RMK SC2AC1 TCU TOP DIST N SLP057 DENSITY ALT 1800FT
20:00
V
25 °C 15 mi - 240° 240° 4 kt METAR CYOW 170000Z 24004KT 15SM FEW020 FEW050 SCT090 25/23 A2968 RMK CU1SC1AC2 SLP053 DENSITY ALT 1900FT
19:00
V
26 °C 15 mi 9.000 ft 260° 260° 5 kt METAR CYOW 162300Z 26005KT 15SM FEW020 SCT050 BKN090 26/23 A2968 RMK CU1SC2AC3 SLP050 DENSITY ALT 2000FT
18:00
V
26 °C 15 mi 13.000 ft 220° 220° 4 kt METAR CYOW 162200Z 22004KT 15SM SCT056 BKN130 26/24 A2967 RMK SC4AC3 CU EMBD SLP048 DENSITY ALT 2000FT
17:00
V
25 °C 15 mi 5.000 ft 270° 270° 5 kt METAR CYOW 162100Z 27005KT 15SM SCT045 BKN050 OVC100 25/23 A2965 RMK CU3SC4AC1 SLP041 DENSITY ALT 2000FT
16:10
V
25 °C 15 mi 5.000 ft Var Var 2 kt METAR CYOW 162010Z VRB02KT 15SM FEW030 BKN050 OVC100 25/24 A2963 RMK CU1SC4AC3 PRESFR SLP034 DENSITY ALT 2000FT
16:00
V
25 °C 15 mi 5.000 ft 210° 210° 3 kt METAR CYOW 162000Z 21003KT 200V260 15SM -SHRA FEW030 BKN050 OVC100 25/24 A2964 RMK CU1SC5AC2 SLP039 DENSITY ALT 1900FT
15:00
V
25 °C 15 mi 4.800 ft 240° 240° 4 kt METAR CYOW 161900Z 24004KT 15SM -SHRA FEW030 BKN048 OVC080 25/25 A2966 RMK CU2SC4AC2 SLP044 DENSITY ALT 2000FT
14:00
V
25 °C 15 mi 4.600 ft Var Var 2 kt METAR CYOW 161800Z VRB02KT 15SM -SHRA BKN046 OVC080 25/24 A2967 RMK SC5AC3 CVCTV CLD EMBD SLP049 DENSITY ALT 1900FT
13:18
V
25 °C 15 mi 3.300 ft 180° 180° 6 kt METAR CYOW 161718Z CCA 18006KT 15SM -SHRA BKN033 OVC050 25/23 A2968 RMK SC6SC2 SLP050 DENSITY ALT 1900FT
13:00
M
25 °C 15 mi 2.400 ft 200° 200° 5 kt METAR CYOW 161700Z 20005KT 15SM BKN024 OVC050 25/23 A2968 RMK SC7SC1 SLP052 DENSITY ALT 2000FT
12:00
V
25 °C 15 mi 8.000 ft 160° 160° 3 kt METAR CYOW 161600Z 16003KT 120V180 15SM SCT015 BKN080 25/24 A2968 RMK SC3AC4 SLP051 DENSITY ALT 1900FT
11:00
V
24 °C 15 mi 10.000 ft 210° 210° 5 kt METAR CYOW 161500Z 21005KT 15SM BKN100 BKN180 24/24 A2972 RMK AC5AC2 SLP065 DENSITY ALT 1800FT
10:00
V
24 °C 15 mi 23.000 ft 190° 190° 5 kt METAR CYOW 161400Z 19005KT 15SM SCT130 BKN230 24/24 A2970 RMK AC3CI4 SLP059 DENSITY ALT 1800FT
09:00
V
22 °C 15 mi 23.000 ft 180° 180° 6 kt METAR CYOW 161300Z 18006KT 15SM BKN230 22/22 A2970 RMK CI6 SLP060 DENSITY ALT 1600FT
08:00
V
22 °C 15 mi 25.000 ft 190° 190° 7 kt METAR CYOW 161200Z 19007KT 15SM FEW045 BKN250 22/22 A2972 RMK SC1CI6 SC TR SLP065 DENSITY ALT 1500FT
07:00
V
20 °C 15 mi 25.000 ft 190° 190° 5 kt METAR CYOW 161100Z 19005KT 15SM FEW045 BKN250 20/20 A2972 RMK SC1CI5 SC TR SLP067 DENSITY ALT 1300FT
06:00
V
19 °C 15 mi 25.000 ft 220° 220° 5 kt METAR CYOW 161000Z 22005KT 15SM FEW046 BKN250 19/19 A2972 RMK SC1CI4 SLP066 DENSITY ALT 1200FT
05:00
V
19 °C 15 mi 25.000 ft 210° 210° 6 kt METAR CYOW 160900Z 21006KT 15SM FEW046 BKN250 19/19 A2970 RMK SC2CI3 SLP059 DENSITY ALT 1300FT
04:00
V
20 °C 15 mi 5.500 ft 220° 220° 5 kt METAR CYOW 160800Z 22005KT 15SM FEW036 BKN055 20/20 A2971 RMK SC2SC4 SLP062 DENSITY ALT 1300FT
03:00
V
20 °C 15 mi 3.200 ft 230° 230° 3 kt METAR CYOW 160700Z 23003KT 15SM BKN032 20/20 A2970 RMK SC6 SLP057 DENSITY ALT 1300FT
02:00
V
19 °C 15 mi - 190° 190° 4 kt METAR CYOW 160600Z 19004KT 15SM FEW003 FEW040 19/19 A2969 RMK SF1SC1 SF TR SC TR SLP056 DENSITY ALT 1300FT
01:00
V
20 °C 10 mi - Var Var 2 kt METAR CYOW 160500Z VRB02KT 10SM FEW003 20/20 A2972 RMK SF2 SLP065 DENSITY ALT 1300FT
00:33
V
20 °C 8 mi - 360° 360° 0 kt METAR CYOW 160433Z 00000KT 8SM SCT003 20/20 A2971 RMK SF4 VIS N QUAD 4 SLP061 DENSITY ALT 1300FT
00:00
L
20 °C 5 mi 400 ft 160° 160° 6 kt METAR CYOW 160400Z 16006KT 5SM BR BKN004 20/20 A2970 RMK SF7 CIG VRB 3-5 SLP059 DENSITY ALT 1400FT

15 juillet 2024

Temps Code Temps Temp. Vue Base cloud Vent METAR/SPECI
23:34
I
20 °C 10 mi 500 ft 140° 140° 5 kt METAR CYOW 160334Z 14005KT 10SM BKN005 20/20 A2971 RMK SF6 SLP062 DENSITY ALT 1300FT
23:00
V
20 °C 15 mi 16.000 ft 120° 120° 5 kt METAR CYOW 160300Z 12005KT 330V140 15SM FEW005 FEW110 BKN160 20/20 A2971 RMK SF1AC2AC3 SF TR SLP060 DENSITY ALT 1400FT
22:00
V
21 °C 15 mi 9.000 ft 260° 260° 3 kt METAR CYOW 160200Z 26003KT 15SM FEW075 BKN090 21/21 A2972 RMK AC1AC6 SLP066 DENSITY ALT 1400FT
21:00
V
21 °C 15 mi 15.000 ft 110° 110° 4 kt METAR CYOW 160100Z 11004KT 15SM FEW005 BKN150 BKN250 21/21 A2972 RMK SF1AC7CI1 SF TR CI TR SLP064 DENSITY ALT 1400FT
20:00
V
21 °C 15 mi 9.000 ft 130° 130° 5 kt METAR CYOW 160000Z 13005KT 15SM FEW005 FEW064 BKN090 21/21 A2974 RMK SF1SC2AC5 SF TR /R18/ DIST SH E-S SLP071 DENSITY ALT 1400FT
19:28
V
21 °C 15 mi 9.500 ft 050° 050° 6 kt METAR CYOW 152328Z 05006KT 340V050 15SM FEW005 FEW019CB SCT064 OVC095 21/21 A2972 RMK SF1CB1SC2AC5 SF TR DIST SH ALQDS PRESFR SLP065 DENSITY ALT 1500FT
19:00
V
21 °C 5 mi 6.400 ft 310° 310° 5 kt METAR CYOW 152300Z CCA 31005KT 5SM -SHRA BR FEW005 SCT019CB OVC064 21/21 A2974 RMK SF1CB4SC4 SF TR /R17/ CB ALQDS DIST LTGIC N-NE SLP073 DENSITY ALT 1400FT
18:42
M
21 °C 3 mi 1.900 ft 300° 300° 11 - 19 kt METAR CYOW 152242Z 30011G19KT 3SM TSRA BKN019CB OVC059 21/21 A2975 RMK CB6SC2 /R17/ LTGIC SLP075 DENSITY ALT 1400FT
18:22
I
21 °C 2 mi 1.900 ft 330° 330° 6 kt METAR CYOW 152222Z 33006KT 230V340 2SM R32/4500VP6000FT/N +TSRA OVC019CB 21/21 A2974 RMK RA2CB6 PRESRR SLP073 DENSITY ALT 1400FT
18:10
M
22 °C 4 mi 4.000 ft 290° 290° 10 - 29 kt METAR CYOW 152210Z 29010G29KT 4SM TSRA OVC040CB 22/22 A2973 RMK CB8 LTGCG PRESRR SLP070 DENSITY ALT 1500FT
18:00
V
23 °C 15 mi 4.000 ft 300° 300° 23 - 32 kt METAR CYOW 152200Z 30023G32KT 15SM TS BKN040CB BKN110 23/20 A2969 RMK CB6AC1 LTGCG SLP057 DENSITY ALT 1700FT
18:02
V
23 °C 15 mi 4.200 ft 300° 300° 21 - 32 kt METAR CYOW 152202Z 30021G32KT 15SM -TSRA BKN042CB OVC100 23/20 A2971 RMK CB7AC1 SLP062 DENSITY ALT 1700FT
17:33
V
28 °C 15 mi 4.000 ft 210° 210° 8 - 15 kt METAR CYOW 152133Z 21008G15KT 15SM TS BKN040CB BKN110 28/23 A2969 RMK CB5AC2 SLP054 DENSITY ALT 2300FT
17:00
V
29 °C 15 mi 3.400 ft 150° 150° 8 kt METAR CYOW 152100Z 15008KT 15SM BKN034TCU BKN110 BKN250 29/24 A2968 RMK TCU5AC2CI1 CI TR SLP053 DENSITY ALT 2300FT
16:00
V
30 °C 15 mi 23.000 ft 210° 210° 7 kt METAR CYOW 152000Z 21007KT 150V220 15SM FEW050 BKN230 30/22 A2972 RMK CU2CI4 SLP066 DENSITY ALT 2400FT
15:00
V
30 °C 15 mi - 230° 230° 9 - 18 kt METAR CYOW 151900Z 23009G18KT 15SM SCT050 SCT250 30/22 A2975 RMK CU3CI1 SLP076 DENSITY ALT 2400FT
14:00
V
30 °C 15 mi - 220° 220° 9 - 15 kt METAR CYOW 151800Z 22009G15KT 15SM SCT040 SCT250 30/22 A2977 RMK CU3CI1 SLP082 DENSITY ALT 2400FT
13:00
V
28 °C 15 mi - 200° 200° 7 - 15 kt METAR CYOW 151700Z 20007G15KT 180V280 15SM SCT032 28/22 A2979 RMK CU3 SLP087 DENSITY ALT 2200FT
12:00
V
28 °C 15 mi - 200° 200° 10 kt METAR CYOW 151600Z 20010KT 170V240 15SM SCT028 28/22 A2979 RMK CU3 SLP089 DENSITY ALT 2200FT
11:00
V
27 °C 15 mi - 240° 240° 7 kt METAR CYOW 151500Z 24007KT 200V270 15SM SCT027 27/22 A2980 RMK CU4 SLP092 DENSITY ALT 2000FT
10:00
M
26 °C 15 mi 2.600 ft 250° 250° 6 kt METAR CYOW 151400Z 25006KT 15SM BKN026 26/21 A2981 RMK SC6 SLP096 DENSITY ALT 1800FT
09:00
V
25 °C 15 mi 25.000 ft 240° 240° 5 kt METAR CYOW 151300Z 24005KT 15SM SCT018 BKN250 25/22 A2982 RMK CU3CI2 SLP097 DENSITY ALT 1800FT
08:00
V
23 °C 15 mi 25.000 ft 250° 250° 5 kt METAR CYOW 151200Z 25005KT 15SM FEW180 BKN250 23/22 A2981 RMK AC1CI6 AC TR SLP096 DENSITY ALT 1600FT
07:00
V
21 °C 15 mi - 240° 240° 3 kt METAR CYOW 151100Z 24003KT 15SM FEW040 SCT230 21/21 A2981 RMK SC1CI3 SC TR SLP095 DENSITY ALT 1400FT
06:00
V
20 °C 15 mi - 210° 210° 3 kt METAR CYOW 151000Z 21003KT 15SM FEW040 SCT250 20/20 A2981 RMK SC1CI3 SLP097 DENSITY ALT 1300FT
05:00
V
21 °C 15 mi - 210° 210° 6 kt METAR CYOW 150900Z 21006KT 15SM SCT050 SCT250 21/21 A2981 RMK SC3CI1 SLP094 DENSITY ALT 1300FT
04:00
V
21 °C 15 mi - 250° 250° 3 kt METAR CYOW 150800Z 25003KT 200V260 15SM SCT037 SCT250 21/21 A2980 RMK SC3CI1 CI TR SLP090 DENSITY ALT 1400FT
03:00
V
22 °C 15 mi 3.800 ft 230° 230° 7 kt METAR CYOW 150700Z 23007KT 15SM BKN038 BKN050 22/22 A2980 RMK SC6SC1 SLP090 DENSITY ALT 1500FT
02:00
V
22 °C 15 mi - 230° 230° 6 kt METAR CYOW 150600Z 23006KT 15SM FEW037 SCT050 22/22 A2980 RMK SC1SC3 SLP092 DENSITY ALT 1500FT
Signaler les modifications